createdAt,value
2018-10-09T00:00:36.757Z,7.50
2018-10-09T00:03:06.050Z,7.53
2018-10-09T00:05:38.244Z,8.03
2018-10-09T00:08:07.352Z,8.03
2018-10-09T00:10:36.583Z,8.03
2018-10-09T00:13:05.708Z,8.97
2018-10-09T00:15:35.053Z,8.57
2018-10-09T00:18:04.128Z,8.40
2018-10-09T00:20:33.155Z,8.20
2018-10-09T00:23:02.232Z,8.80
2018-10-09T00:25:31.284Z,8.30
2018-10-09T00:28:00.336Z,8.50
2018-10-09T00:30:29.465Z,9.13
2018-10-09T00:32:58.572Z,8.87
2018-10-09T00:35:27.653Z,8.53
2018-10-09T00:37:56.828Z,9.27
2018-10-09T00:40:25.960Z,8.63
2018-10-09T00:42:55.852Z,8.77
2018-10-09T00:45:24.962Z,8.70
2018-10-09T00:47:54.101Z,8.47
2018-10-09T00:50:23.197Z,8.27
2018-10-09T00:52:52.300Z,8.60
2018-10-09T00:55:21.489Z,7.77
2018-10-09T00:57:50.584Z,8.23
2018-10-09T01:00:19.644Z,8.30
2018-10-09T01:02:48.777Z,8.10
2018-10-09T01:05:17.876Z,8.00
2018-10-09T01:07:47.044Z,8.13
2018-10-09T01:10:16.084Z,7.93
2018-10-09T01:12:45.132Z,8.10
2018-10-09T01:15:14.681Z,7.97
2018-10-09T01:17:43.711Z,7.67
2018-10-09T01:20:13.441Z,7.57
2018-10-09T01:22:42.536Z,7.80
2018-10-09T01:25:11.636Z,8.47
2018-10-09T01:27:40.857Z,8.70
2018-10-09T01:30:09.961Z,8.80
2018-10-09T01:32:39.044Z,8.23
2018-10-09T01:35:08.116Z,8.40
2018-10-09T01:37:37.252Z,8.43
2018-10-09T01:40:06.641Z,8.43
2018-10-09T01:42:35.708Z,8.50
2018-10-09T01:45:05.012Z,8.20
2018-10-09T01:47:34.068Z,8.20
2018-10-09T01:50:03.200Z,7.77
2018-10-09T01:52:32.288Z,8.03
2018-10-09T01:55:01.392Z,7.70
2018-10-09T01:57:30.465Z,8.43
2018-10-09T01:59:59.609Z,8.00
2018-10-09T02:02:28.677Z,7.13
2018-10-09T02:04:57.796Z,7.80
2018-10-09T02:07:26.868Z,7.70
2018-10-09T02:09:55.964Z,7.17
2018-10-09T02:12:25.085Z,7.10
2018-10-09T02:14:54.181Z,7.50
2018-10-09T02:17:23.239Z,8.40
2018-10-09T02:19:52.369Z,7.87
2018-10-09T02:22:21.441Z,7.73
2018-10-09T02:24:50.537Z,8.07
2018-10-09T02:27:19.964Z,7.87
2018-10-09T02:29:49.160Z,7.90
2018-10-09T02:32:18.194Z,8.13
2018-10-09T02:34:47.304Z,9.30
2018-10-09T02:37:16.372Z,7.83
2018-10-09T02:39:45.404Z,7.93
2018-10-09T02:42:14.537Z,8.07
2018-10-09T02:44:43.597Z,8.57
2018-10-09T02:47:12.687Z,7.90
2018-10-09T02:49:41.772Z,7.90
2018-10-09T02:52:11.086Z,8.07
2018-10-09T02:54:40.136Z,8.20
2018-10-09T02:57:09.231Z,8.63
2018-10-09T02:59:38.409Z,7.97
2018-10-09T03:02:07.504Z,8.17
2018-10-09T03:04:36.548Z,7.50
2018-10-09T03:07:05.598Z,7.57
2018-10-09T03:09:34.648Z,7.40
2018-10-09T03:12:03.689Z,7.73
2018-10-09T03:14:32.821Z,8.37
2018-10-09T03:17:01.900Z,8.80
2018-10-09T03:19:30.964Z,8.80
2018-10-09T03:22:00.063Z,8.63
2018-10-09T03:24:29.157Z,8.53
2018-10-09T03:26:58.196Z,10.43
2018-10-09T03:29:27.757Z,9.93
2018-10-09T03:31:56.819Z,9.67
2018-10-09T03:34:25.869Z,10.73
2018-10-09T03:36:55.044Z,8.97
2018-10-09T03:39:24.145Z,10.00
2018-10-09T03:41:53.196Z,9.27
2018-10-09T03:44:22.292Z,8.43
2018-10-09T03:46:51.376Z,9.47
2018-10-09T03:49:20.464Z,8.33
2018-10-09T03:51:49.976Z,9.40
2018-10-09T03:54:19.121Z,8.63
2018-10-09T03:56:48.434Z,9.20
2018-10-09T03:59:17.657Z,9.70
2018-10-09T04:01:46.712Z,11.10
2018-10-09T04:04:15.817Z,10.50
2018-10-09T04:06:44.904Z,9.37
2018-10-09T04:09:14.764Z,8.77
2018-10-09T04:11:44.108Z,7.60
2018-10-09T04:14:13.189Z,8.70
2018-10-09T04:16:42.234Z,10.10
2018-10-09T04:19:11.276Z,9.40
2018-10-09T04:21:40.364Z,8.57
2018-10-09T04:24:09.444Z,8.67
2018-10-09T04:26:38.589Z,7.90
2018-10-09T04:29:07.889Z,8.90
2018-10-09T04:31:36.985Z,8.13
2018-10-09T04:34:06.938Z,8.90
2018-10-09T04:36:36.197Z,9.20
2018-10-09T04:39:07.524Z,8.40
2018-10-09T04:41:36.641Z,8.73
2018-10-09T04:44:05.745Z,8.97
2018-10-09T04:46:34.856Z,9.13
2018-10-09T04:49:03.935Z,8.80
2018-10-09T04:51:33.432Z,8.60
2018-10-09T04:54:02.505Z,8.90
2018-10-09T04:56:31.548Z,9.10
2018-10-09T04:59:00.616Z,10.33
2018-10-09T05:01:29.676Z,9.57
2018-10-09T05:03:58.761Z,9.70
2018-10-09T05:06:27.904Z,10.40
2018-10-09T05:08:56.997Z,9.87
2018-10-09T05:11:27.142Z,9.37
2018-10-09T05:13:57.096Z,9.80
2018-10-09T05:16:26.192Z,9.73
2018-10-09T05:18:55.245Z,9.33
2018-10-09T05:21:24.296Z,9.10
2018-10-09T05:23:53.388Z,9.60
2018-10-09T05:26:22.509Z,9.60
2018-10-09T05:28:51.616Z,10.17
2018-10-09T05:31:20.753Z,10.77
2018-10-09T05:33:49.772Z,10.20
2018-10-09T05:36:18.944Z,11.10
2018-10-09T05:38:48.051Z,11.40
2018-10-09T05:41:17.072Z,11.97
2018-10-09T05:43:46.204Z,11.77
2018-10-09T05:46:15.248Z,11.23
2018-10-09T05:48:45.089Z,11.17
2018-10-09T05:51:14.144Z,11.00
2018-10-09T05:53:43.277Z,10.67
2018-10-09T05:56:12.377Z,10.33
2018-10-09T05:58:41.521Z,11.07
2018-10-09T06:01:10.656Z,10.13
2018-10-09T06:03:39.648Z,10.00
2018-10-09T06:06:08.744Z,11.10
2018-10-09T06:08:37.849Z,10.90
2018-10-09T06:11:06.908Z,10.73
2018-10-09T06:13:35.996Z,11.57
2018-10-09T06:16:06.016Z,12.87
2018-10-09T06:18:35.537Z,12.97
2018-10-09T06:21:04.633Z,12.53
2018-10-09T06:23:33.716Z,12.83
2018-10-09T06:26:02.801Z,10.93
2018-10-09T06:28:31.932Z,11.37
2018-10-09T06:31:00.993Z,11.23
2018-10-09T06:33:30.189Z,10.77
2018-10-09T06:35:59.432Z,9.57
2018-10-09T06:38:28.480Z,11.10
2018-10-09T06:40:57.517Z,11.03
2018-10-09T06:43:26.637Z,10.80
2018-10-09T06:45:55.676Z,9.87
2018-10-09T06:48:24.804Z,10.10
2018-10-09T06:50:53.804Z,9.10
2018-10-09T06:53:22.933Z,9.17
2018-10-09T06:55:51.993Z,8.23
2018-10-09T06:58:21.092Z,8.23
2018-10-09T07:00:50.176Z,7.83
2018-10-09T07:03:19.304Z,8.50
2018-10-09T07:05:48.429Z,8.47
2018-10-09T07:08:17.484Z,7.80
2018-10-09T07:10:46.621Z,7.75
2018-10-09T07:13:15.724Z,7.37
2018-10-09T07:15:44.857Z,7.70
2018-10-09T07:18:13.949Z,7.85
2018-10-09T07:20:42.992Z,8.53
2018-10-09T07:23:12.041Z,8.45
2018-10-09T07:25:41.293Z,8.10
2018-10-09T07:28:10.308Z,9.03
2018-10-09T07:30:39.392Z,8.98
2018-10-09T07:33:08.500Z,8.90
2018-10-09T07:35:37.616Z,9.30
2018-10-09T07:38:06.820Z,9.40
2018-10-09T07:40:35.890Z,11.12
2018-10-09T07:43:05.178Z,12.05
2018-10-09T07:45:34.304Z,13.20
2018-10-09T07:48:03.425Z,11.48
2018-10-09T07:50:32.488Z,11.48
2018-10-09T07:53:01.627Z,12.25
2018-10-09T07:55:30.693Z,14.60
2018-10-09T07:58:00.201Z,11.55
2018-10-09T08:00:29.288Z,12.10
2018-10-09T08:02:58.340Z,13.38
2018-10-09T08:05:27.489Z,14.10
2018-10-09T08:07:56.541Z,14.00
2018-10-09T08:10:25.650Z,16.82
2018-10-09T08:12:54.948Z,19.30
2018-10-09T08:15:24.067Z,18.35
2018-10-09T08:17:53.140Z,17.60
2018-10-09T08:20:22.232Z,15.48
2018-10-09T08:22:51.405Z,15.65
2018-10-09T08:25:20.428Z,15.08
2018-10-09T08:27:49.522Z,15.05
2018-10-09T08:30:19.573Z,17.05
2018-10-09T08:32:48.617Z,17.45
2018-10-09T08:35:18.004Z,17.82
2018-10-09T08:37:47.156Z,18.02
2018-10-09T08:40:16.302Z,19.20
2018-10-09T08:42:45.401Z,17.95
2018-10-09T08:45:14.484Z,17.27
2018-10-09T08:47:43.593Z,17.62
2018-10-09T08:50:12.737Z,17.25
2018-10-09T08:52:41.836Z,16.77
2018-10-09T08:55:11.143Z,18.00
2018-10-09T08:57:40.267Z,17.30
2018-10-09T09:00:10.773Z,17.00
2018-10-09T09:02:39.812Z,15.88
2018-10-09T09:05:09.196Z,16.87
2018-10-09T09:07:38.349Z,16.70
2018-10-09T09:10:08.123Z,18.02
2018-10-09T09:12:38.257Z,16.02
2018-10-09T09:15:08.142Z,15.78
2018-10-09T09:17:38.013Z,15.83
2018-10-09T09:20:07.076Z,15.48
2018-10-09T09:22:36.190Z,17.25
2018-10-09T09:25:05.271Z,15.48
2018-10-09T09:27:34.500Z,16.60
2018-10-09T09:30:03.664Z,15.85
2018-10-09T09:32:32.781Z,15.32
2018-10-09T09:35:01.897Z,15.58
2018-10-09T09:37:30.972Z,15.65
2018-10-09T09:40:00.049Z,15.18
2018-10-09T09:42:29.448Z,16.42
2018-10-09T09:44:58.544Z,15.93
2018-10-09T09:47:27.589Z,14.45
2018-10-09T09:49:56.652Z,16.52
2018-10-09T09:52:25.986Z,14.38
2018-10-09T09:54:55.168Z,15.75
2018-10-09T09:57:24.372Z,15.38
2018-10-09T09:59:53.436Z,14.73
2018-10-09T10:02:22.541Z,14.38
2018-10-09T10:04:51.632Z,13.40
2018-10-09T10:07:20.676Z,13.40
2018-10-09T10:09:49.786Z,13.88
2018-10-09T10:12:18.922Z,13.08
2018-10-09T10:14:47.998Z,12.50
2018-10-09T10:17:17.113Z,12.10
2018-10-09T10:19:46.264Z,12.00
2018-10-09T10:22:16.188Z,10.78
2018-10-09T10:24:45.320Z,10.38
2018-10-09T10:27:14.416Z,10.65
2018-10-09T10:29:43.796Z,10.80
2018-10-09T10:32:12.880Z,10.60
2018-10-09T10:34:42.033Z,10.60
2018-10-09T10:37:11.173Z,9.95
2018-10-09T10:39:40.309Z,11.35
2018-10-09T10:42:09.432Z,10.68
2018-10-09T10:44:38.449Z,10.08
2018-10-09T10:47:07.540Z,8.95
2018-10-09T10:49:36.749Z,10.68
2018-10-09T10:52:05.709Z,10.23
2018-10-09T10:54:34.772Z,10.70
2018-10-09T10:57:03.970Z,11.45
2018-10-09T10:59:33.066Z,10.35
2018-10-09T11:02:02.129Z,11.00
2018-10-09T11:04:31.232Z,11.45
2018-10-09T11:07:00.353Z,10.75
2018-10-09T11:09:29.424Z,10.00
2018-10-09T11:11:58.553Z,11.73
2018-10-09T11:14:27.665Z,10.75
2018-10-09T11:16:56.737Z,10.80
2018-10-09T11:19:25.832Z,11.43
2018-10-09T11:21:54.912Z,11.28
2018-10-09T11:24:24.028Z,10.95
2018-10-09T11:26:53.405Z,10.68
2018-10-09T11:29:22.712Z,10.55
2018-10-09T11:31:51.821Z,11.10
2018-10-09T11:34:21.117Z,10.93
2018-10-09T11:36:50.342Z,11.50
2018-10-09T11:39:19.264Z,11.45
2018-10-09T11:41:48.413Z,10.75
2018-10-09T11:44:17.455Z,12.33
2018-10-09T11:46:46.480Z,11.03
2018-10-09T11:49:15.616Z,10.65
2018-10-09T11:51:44.741Z,11.38
2018-10-09T11:54:13.824Z,10.88
2018-10-09T11:56:42.940Z,11.63
2018-10-09T11:59:12.091Z,10.80
2018-10-09T12:01:41.144Z,12.07
2018-10-09T12:04:10.714Z,12.30
2018-10-09T12:06:39.885Z,10.90
2018-10-09T12:09:11.612Z,11.95
2018-10-09T12:11:41.532Z,10.88
2018-10-09T12:14:11.277Z,12.55
2018-10-09T12:16:40.449Z,11.30
2018-10-09T12:19:10.161Z,11.65
2018-10-09T12:21:39.314Z,11.50
2018-10-09T12:24:09.328Z,11.53
2018-10-09T12:26:38.685Z,11.70
2018-10-09T12:29:07.777Z,11.05
2018-10-09T12:31:37.089Z,10.78
2018-10-09T12:34:06.992Z,10.78
2018-10-09T12:36:36.273Z,11.70
2018-10-09T12:39:10.925Z,11.03
2018-10-09T12:41:40.085Z,11.40
2018-10-09T12:44:09.833Z,11.12
2018-10-09T12:46:39.429Z,10.85
2018-10-09T12:49:09.024Z,11.12
2018-10-09T12:51:38.125Z,10.35
2018-10-09T12:54:07.476Z,12.23
2018-10-09T12:56:36.581Z,10.85
2018-10-09T12:59:05.788Z,11.20
2018-10-09T13:01:34.805Z,10.58
2018-10-09T13:04:03.910Z,10.32
2018-10-09T13:06:33.005Z,11.50
2018-10-09T13:09:02.253Z,11.45
2018-10-09T13:11:31.392Z,12.00
2018-10-09T13:14:00.516Z,11.40
2018-10-09T13:16:29.684Z,10.35
2018-10-09T13:18:58.796Z,12.53
2018-10-09T13:21:28.100Z,10.58
2018-10-09T13:23:57.020Z,11.53
2018-10-09T13:26:26.073Z,11.75
2018-10-09T13:28:55.152Z,10.58
2018-10-09T13:31:24.264Z,10.60
2018-10-09T13:33:53.350Z,11.08
2018-10-09T13:36:22.364Z,11.55
2018-10-09T13:38:51.528Z,11.28
2018-10-09T13:41:20.645Z,11.15
2018-10-09T13:43:49.714Z,11.95
2018-10-09T13:46:18.805Z,11.45
2018-10-09T13:48:48.716Z,11.12
2018-10-09T13:51:17.933Z,9.68
2018-10-09T13:53:48.069Z,10.38
2018-10-09T13:56:17.108Z,11.12
2018-10-09T13:58:46.261Z,10.40
2018-10-09T14:01:15.324Z,10.55
2018-10-09T14:03:44.456Z,11.43
2018-10-09T14:06:13.585Z,10.88
2018-10-09T14:08:42.649Z,11.18
2018-10-09T14:11:11.948Z,10.43
2018-10-09T14:13:41.041Z,11.25
2018-10-09T14:16:10.223Z,11.75
2018-10-09T14:18:39.452Z,10.68
2018-10-09T14:21:08.537Z,11.88
2018-10-09T14:23:37.618Z,11.48
2018-10-09T14:26:06.720Z,12.28
2018-10-09T14:28:35.806Z,11.68
2018-10-09T14:31:04.909Z,11.03
2018-10-09T14:33:33.996Z,11.65
2018-10-09T14:36:03.117Z,12.03
2018-10-09T14:38:32.501Z,12.23
2018-10-09T14:41:01.603Z,12.15
2018-10-09T14:43:30.693Z,11.90
2018-10-09T14:45:59.804Z,12.85
2018-10-09T14:48:28.893Z,13.55
2018-10-09T14:50:58.008Z,13.62
2018-10-09T14:53:27.121Z,13.78
2018-10-09T14:55:56.220Z,13.98
2018-10-09T14:58:25.336Z,13.32
2018-10-09T15:00:54.429Z,12.88
2018-10-09T15:03:24.102Z,12.90
2018-10-09T15:05:53.225Z,13.88
2018-10-09T15:08:22.348Z,14.73
2018-10-09T15:10:51.417Z,13.40
2018-10-09T15:13:20.656Z,14.05
2018-10-09T15:15:49.755Z,13.62
2018-10-09T15:18:18.858Z,13.43
2018-10-09T15:20:47.949Z,14.10
2018-10-09T15:23:17.060Z,13.95
2018-10-09T15:25:46.157Z,14.80
2018-10-09T15:28:15.252Z,14.43
2018-10-09T15:30:44.329Z,13.68
2018-10-09T15:33:13.388Z,13.60
2018-10-09T15:35:43.501Z,14.35
2018-10-09T15:38:12.545Z,12.88
2018-10-09T15:40:41.704Z,14.38
2018-10-09T15:43:10.768Z,14.45
2018-10-09T15:45:40.025Z,14.50
2018-10-09T15:48:09.281Z,14.28
2018-10-09T15:50:38.396Z,13.55
2018-10-09T15:53:07.616Z,13.88
2018-10-09T15:55:36.696Z,12.40
2018-10-09T15:58:05.809Z,14.47
2018-10-09T16:00:37.341Z,13.20
2018-10-09T16:03:07.239Z,13.20
2018-10-09T16:05:36.377Z,12.95
2018-10-09T16:08:05.652Z,13.35
2018-10-09T16:10:34.732Z,16.05
2018-10-09T16:13:03.860Z,15.80
2018-10-09T16:15:33.063Z,16.93
2018-10-09T16:18:02.128Z,18.23
2018-10-09T16:20:31.233Z,17.30
2018-10-09T16:23:00.460Z,17.73
2018-10-09T16:25:29.551Z,20.25
2018-10-09T16:27:58.664Z,20.65
2018-10-09T16:30:28.145Z,19.80
2018-10-09T16:32:57.232Z,20.10
2018-10-09T16:35:26.357Z,19.30
2018-10-09T16:37:55.440Z,15.98
2018-10-09T16:40:24.527Z,15.60
2018-10-09T16:42:53.619Z,14.93
2018-10-09T16:45:22.715Z,15.88
2018-10-09T16:47:51.776Z,13.88
2018-10-09T16:50:21.989Z,15.20
2018-10-09T16:52:51.124Z,14.33
2018-10-09T16:55:20.216Z,14.60
2018-10-09T16:57:49.323Z,15.53
2018-10-09T17:00:18.427Z,14.75
2018-10-09T17:02:47.537Z,15.50
2018-10-09T17:05:16.764Z,15.65
2018-10-09T17:07:46.233Z,15.50
2018-10-09T17:10:15.291Z,15.98
2018-10-09T17:12:44.400Z,16.17
2018-10-09T17:15:13.489Z,16.10
2018-10-09T17:17:42.548Z,16.02
2018-10-09T17:20:11.648Z,16.27
2018-10-09T17:22:40.684Z,15.78
2018-10-09T17:25:09.804Z,15.18
2018-10-09T17:27:38.928Z,16.73
2018-10-09T17:30:08.452Z,16.40
2018-10-09T17:32:37.685Z,16.12
2018-10-09T17:35:06.901Z,16.75
2018-10-09T17:37:35.964Z,16.65
2018-10-09T17:40:05.047Z,17.12
2018-10-09T17:42:34.099Z,17.73
2018-10-09T17:45:04.209Z,17.17
2018-10-09T17:47:33.284Z,18.23
2018-10-09T17:50:02.397Z,19.12
2018-10-09T17:52:31.516Z,18.37
2018-10-09T17:55:00.608Z,17.27
2018-10-09T17:57:29.657Z,17.23
2018-10-09T17:59:58.728Z,17.82
2018-10-09T18:02:27.785Z,16.97
2018-10-09T18:04:57.685Z,17.90
2018-10-09T18:07:26.781Z,17.35
2018-10-09T18:09:56.280Z,17.48
2018-10-09T18:12:25.320Z,18.25
2018-10-09T18:14:54.636Z,18.23
2018-10-09T18:17:23.758Z,19.65
2018-10-09T18:19:53.116Z,18.60
2018-10-09T18:22:22.504Z,18.80
2018-10-09T18:24:51.608Z,19.12
2018-10-09T18:27:21.284Z,19.67
2018-10-09T18:29:50.744Z,19.42
2018-10-09T18:32:19.891Z,19.48
2018-10-09T18:34:48.957Z,19.65
2018-10-09T18:37:18.109Z,19.92
2018-10-09T18:39:47.214Z,18.87
2018-10-09T18:42:16.350Z,19.35
2018-10-09T18:44:45.496Z,18.82
2018-10-09T18:47:19.960Z,19.65
2018-10-09T18:49:49.277Z,19.27
2018-10-09T18:52:18.425Z,18.40
2018-10-09T18:54:47.512Z,19.23
2018-10-09T18:57:16.856Z,19.17
2018-10-09T18:59:45.907Z,20.07
2018-10-09T19:02:15.169Z,19.48
2018-10-09T19:04:44.915Z,19.65
2018-10-09T19:07:13.923Z,19.85
2018-10-09T19:09:42.996Z,19.50
2018-10-09T19:12:12.201Z,21.25
2018-10-09T19:14:41.265Z,21.42
2018-10-09T19:17:10.437Z,21.90
2018-10-09T19:19:39.508Z,21.50
2018-10-09T19:22:08.652Z,22.77
2018-10-09T19:24:37.700Z,21.82
2018-10-09T19:27:07.192Z,21.37
2018-10-09T19:29:36.598Z,22.27
2018-10-09T19:32:05.681Z,21.43
2018-10-09T19:34:35.344Z,22.67
2018-10-09T19:37:04.429Z,21.60
2018-10-09T19:39:33.502Z,20.60
2018-10-09T19:42:02.580Z,21.77
2018-10-09T19:44:31.669Z,20.47
2018-10-09T19:47:00.699Z,21.17
2018-10-09T19:49:29.792Z,22.70
2018-10-09T19:51:58.864Z,25.73
2018-10-09T19:54:27.956Z,25.97
2018-10-09T19:56:57.109Z,23.80
2018-10-09T19:59:26.593Z,23.73
2018-10-09T20:01:55.589Z,24.10
2018-10-09T20:04:24.685Z,23.33
2018-10-09T20:06:53.781Z,23.40
2018-10-09T20:09:22.877Z,23.80
2018-10-09T20:11:52.049Z,23.13
2018-10-09T20:14:21.165Z,24.03
2018-10-09T20:16:50.217Z,25.23
2018-10-09T20:19:19.356Z,23.57
2018-10-09T20:21:48.455Z,22.87
2018-10-09T20:24:17.544Z,23.40
2018-10-09T20:26:46.670Z,22.77
2018-10-09T20:29:15.732Z,22.23
2018-10-09T20:31:44.900Z,22.40
2018-10-09T20:34:14.001Z,23.73
2018-10-09T20:36:43.081Z,22.80
2018-10-09T20:39:12.176Z,23.10
2018-10-09T20:41:41.293Z,23.32
2018-10-09T20:44:10.380Z,23.20
2018-10-09T20:46:39.476Z,23.33
2018-10-09T20:49:08.697Z,21.80
2018-10-09T20:51:37.713Z,21.30
2018-10-09T20:54:06.801Z,22.80
2018-10-09T20:56:35.948Z,22.97
2018-10-09T20:59:05.064Z,22.07
2018-10-09T21:01:34.152Z,23.13
2018-10-09T21:04:03.281Z,22.43
2018-10-09T21:06:32.340Z,22.20
2018-10-09T21:09:01.418Z,22.80
2018-10-09T21:11:30.567Z,24.80
2018-10-09T21:13:59.668Z,23.20
2018-10-09T21:16:28.752Z,24.07
2018-10-09T21:18:57.909Z,23.87
2018-10-09T21:21:27.592Z,21.83
2018-10-09T21:23:56.659Z,22.50
2018-10-09T21:26:25.924Z,22.70
2018-10-09T21:28:55.020Z,24.27
2018-10-09T21:31:24.112Z,22.13
2018-10-09T21:33:53.241Z,22.57
2018-10-09T21:36:22.386Z,22.43
2018-10-09T21:38:51.400Z,22.23
2018-10-09T21:41:20.510Z,22.63
2018-10-09T21:43:49.588Z,23.67
2018-10-09T21:46:18.661Z,22.83
2018-10-09T21:48:47.730Z,23.20
2018-10-09T21:51:16.800Z,22.40
2018-10-09T21:53:45.913Z,23.27
2018-10-09T21:56:14.988Z,22.53
2018-10-09T21:58:44.096Z,22.30
2018-10-09T22:01:13.621Z,21.50
2018-10-09T22:03:42.865Z,21.40
2018-10-09T22:06:11.972Z,22.23
2018-10-09T22:08:41.061Z,22.70
2018-10-09T22:11:10.192Z,22.73
2018-10-09T22:13:39.256Z,22.43
2018-10-09T22:16:08.342Z,22.10
2018-10-09T22:18:38.564Z,21.27
2018-10-09T22:21:07.580Z,20.37
2018-10-09T22:23:36.667Z,20.70
2018-10-09T22:26:05.748Z,20.70
2018-10-09T22:28:35.084Z,20.37
2018-10-09T22:31:04.168Z,20.83
2018-10-09T22:33:33.250Z,21.83
2018-10-09T22:36:02.336Z,22.67
2018-10-09T22:38:32.011Z,24.13
2018-10-09T22:41:01.377Z,22.43
2018-10-09T22:43:30.407Z,21.47
2018-10-09T22:45:59.495Z,21.47
2018-10-09T22:48:28.576Z,22.60
2018-10-09T22:50:57.676Z,22.93
2018-10-09T22:53:26.776Z,22.47
2018-10-09T22:55:55.836Z,22.93
2018-10-09T22:58:25.921Z,23.10
2018-10-09T23:00:55.060Z,22.67
2018-10-09T23:03:24.132Z,22.37
2018-10-09T23:05:53.228Z,21.83
2018-10-09T23:08:22.316Z,22.07
2018-10-09T23:10:51.433Z,20.53
2018-10-09T23:13:20.537Z,20.60
2018-10-09T23:15:49.632Z,20.03
2018-10-09T23:18:18.693Z,20.13
2018-10-09T23:20:47.843Z,20.13
2018-10-09T23:23:16.897Z,19.93
2018-10-09T23:25:45.992Z,19.47
2018-10-09T23:28:15.064Z,20.10
2018-10-09T23:30:45.539Z,21.47
2018-10-09T23:33:14.671Z,20.53
2018-10-09T23:35:43.724Z,21.20
2018-10-09T23:38:12.788Z,22.00
2018-10-09T23:40:41.872Z,20.10
2018-10-09T23:43:11.069Z,22.00
2018-10-09T23:45:40.067Z,21.90
2018-10-09T23:48:10.172Z,21.70
2018-10-09T23:50:41.059Z,21.07
2018-10-09T23:53:10.165Z,21.20
2018-10-09T23:55:39.220Z,21.37
2018-10-09T23:58:08.348Z,21.20
